Time;durP1;ratioP1;P1;durP2;ratioP2;P2;SDS_P1;SDS_P2;PMS_P1;PMS_P2;Temp;Humidity;BMP_temperature;BMP_pressure;BME280_temperature;BME280_humidity;BME280_pressure;Samples;Min_cycle;Max_cycle;Signal;HPM_P1;HPM_P2
2023/09/26 00:00:22;;;;;;;;;45.60;38.40;;;;;19.13;68.29;99881.28;4972829;28;8879;-73
2023/09/26 00:03:12;;;;;;;;;38.40;32.80;;;;;19.19;67.67;99885.44;4972535;28;8859;-74
2023/09/26 00:05:42;;;;;;;;;45.20;36.40;;;;;19.11;68.16;99875.19;4970123;28;8864;-74
2023/09/26 00:08:11;;;;;;;;;45.00;37.60;;;;;19.13;67.84;99877.78;4971287;28;8848;-74
2023/09/26 00:10:41;;;;;;;;;44.40;35.80;;;;;19.11;67.65;99869.84;4972560;28;8922;-73
2023/09/26 00:13:10;;;;;;;;;41.40;35.00;;;;;19.06;67.33;99877.22;4972499;28;9104;-74
2023/09/26 00:15:39;;;;;;;;;43.00;34.00;;;;;19.07;67.86;99892.28;4972447;28;8898;-74
2023/09/26 00:18:08;;;;;;;;;39.20;35.40;;;;;19.01;67.62;99886.41;4965703;28;8842;-76
2023/09/26 00:20:39;;;;;;;;;38.40;34.00;;;;;19.05;67.68;99883.50;4953339;28;9601;-75
2023/09/26 00:23:07;;;;;;;;;41.40;36.00;;;;;19.09;67.52;99886.88;4953985;28;8921;-73
2023/09/26 00:25:37;;;;;;;;;45.60;38.20;;;;;18.81;67.88;99890.91;4970371;28;8884;-74
2023/09/26 00:28:07;;;;;;;;;42.40;35.20;;;;;18.80;68.28;99889.19;4972776;28;8940;-75
2023/09/26 00:30:37;;;;;;;;;38.20;32.20;;;;;18.68;68.17;99889.75;4971130;28;9634;-73
2023/09/26 00:33:06;;;;;;;;;36.00;32.40;;;;;18.57;68.77;99890.28;4922640;28;8868;-75
2023/09/26 00:35:35;;;;;;;;;43.40;32.80;;;;;18.32;69.91;99895.94;4972246;28;8860;-75
2023/09/26 00:38:04;;;;;;;;;39.40;35.00;;;;;18.43;69.95;99888.28;4972303;28;8883;-75
2023/09/26 00:40:33;;;;;;;;;31.40;29.40;;;;;18.51;69.61;99883.44;4926932;28;8858;-75
2023/09/26 00:43:02;;;;;;;;;36.20;33.00;;;;;18.64;69.26;99878.41;4918890;28;8858;-75
2023/09/26 00:45:34;;;;;;;;;39.80;33.40;;;;;18.47;69.35;99887.19;4955474;28;8864;-77
2023/09/26 00:48:05;;;;;;;;;33.40;30.00;;;;;18.48;69.38;99886.28;4970563;28;9014;-75
2023/09/26 00:50:34;;;;;;;;;31.20;28.60;;;;;18.42;69.15;99889.25;4971251;28;8879;-75
2023/09/26 00:53:05;;;;;;;;;35.40;30.20;;;;;18.02;70.35;99896.41;4970520;28;8887;-74
2023/09/26 00:55:34;;;;;;;;;41.60;34.80;;;;;17.63;71.72;99884.00;4970377;28;8881;-76
2023/09/26 00:58:03;;;;;;;;;39.20;33.20;;;;;17.49;73.17;99881.94;4969495;28;8871;-75
2023/09/26 01:00:34;;;;;;;;;35.20;32.20;;;;;17.80;72.57;99877.03;4937786;28;8864;-73
2023/09/26 01:03:05;;;;;;;;;37.60;31.40;;;;;17.93;72.05;99867.56;4970317;28;8871;-74
2023/09/26 01:05:36;;;;;;;;;36.40;32.20;;;;;18.00;71.73;99876.13;4970316;28;8868;-75
2023/09/26 01:08:06;;;;;;;;;36.40;30.00;;;;;17.84;71.62;99876.00;4971804;28;8950;-74
2023/09/26 01:10:37;;;;;;;;;35.80;30.40;;;;;17.95;71.43;99871.91;4970354;28;9682;-74
2023/09/26 01:13:06;;;;;;;;;29.60;26.80;;;;;18.03;70.91;99873.34;4972354;28;9002;-74
2023/09/26 01:15:38;;;;;;;;;34.40;31.00;;;;;17.87;70.90;99879.38;4971706;28;8863;-75
2023/09/26 01:18:09;;;;;;;;;29.40;27.60;;;;;17.87;70.76;99882.03;4971053;28;8953;-75
2023/09/26 01:20:39;;;;;;;;;23.20;15.00;;;;;17.84;71.21;99886.63;4970178;28;8867;-74
2023/09/26 01:23:11;;;;;;;;;33.60;29.40;;;;;18.01;71.03;99891.19;4970308;28;8887;-74
2023/09/26 01:25:42;;;;;;;;;29.20;29.00;;;;;18.15;70.75;99883.41;4971321;28;8901;-74
2023/09/26 01:28:16;;;;;;;;;34.00;31.00;;;;;18.09;69.79;99886.38;4971206;28;8896;-73
2023/09/26 01:30:47;;;;;;;;;32.80;27.00;;;;;17.48;72.90;99884.69;4985948;28;8891;-75
2023/09/26 01:33:19;;;;;;;;;31.20;27.40;;;;;17.54;72.37;99884.41;4968977;28;8860;-76
2023/09/26 01:35:48;;;;;;;;;33.20;30.00;;;;;17.58;72.68;99892.16;4969893;28;8927;-75
2023/09/26 01:38:19;;;;;;;;;33.80;29.20;;;;;17.73;72.39;99892.44;4937598;28;8876;-74
2023/09/26 01:40:49;;;;;;;;;32.60;29.60;;;;;17.88;72.22;99885.56;4970407;28;8894;-75
2023/09/26 01:43:18;;;;;;;;;31.40;29.60;;;;;18.03;72.17;99895.50;4971416;28;8994;-74
2023/09/26 01:45:47;;;;;;;;;35.00;30.80;;;;;18.05;70.80;99883.00;4971619;28;8867;-74
2023/09/26 01:48:16;;;;;;;;;35.00;30.20;;;;;18.12;70.48;99881.78;4969977;28;8859;-74
2023/09/26 01:50:45;;;;;;;;;34.40;31.00;;;;;18.12;70.83;99884.44;4969260;28;8973;-76
2023/09/26 01:53:14;;;;;;;;;30.20;27.00;;;;;17.96;71.61;99892.22;4969531;28;8887;-74
2023/09/26 01:55:43;;;;;;;;;31.60;30.00;;;;;18.11;71.29;99885.38;4970773;28;8864;-75
2023/09/26 01:58:13;;;;;;;;;38.60;32.60;;;;;18.21;70.84;99885.78;4969236;28;8864;-74
2023/09/26 02:00:42;;;;;;;;;30.40;28.80;;;;;18.32;70.51;99891.47;4970655;28;8938;-77
2023/09/26 02:03:11;;;;;;;;;35.20;30.00;;;;;18.35;70.10;99886.00;4969421;28;8883;-75
2023/09/26 02:05:40;;;;;;;;;36.00;29.60;;;;;17.36;72.53;99891.38;4936584;28;9092;-74
2023/09/26 02:08:09;;;;;;;;;43.20;34.60;;;;;16.96;75.07;99893.06;4969827;28;9025;-74
2023/09/26 02:10:38;;;;;;;;;41.60;32.00;;;;;16.53;77.14;99889.50;4971572;28;8965;-75
2023/09/26 02:13:07;;;;;;;;;32.00;27.80;;;;;17.01;75.30;99896.41;4970054;28;8862;-74
2023/09/26 02:15:38;;;;;;;;;38.40;27.60;;;;;17.17;74.55;99885.97;4970340;28;8934;-74
2023/09/26 02:18:07;;;;;;;;;31.80;28.00;;;;;17.44;73.80;99891.94;4969348;28;8852;-72
2023/09/26 02:20:36;;;;;;;;;31.80;29.40;;;;;17.71;72.90;99891.63;4968884;28;8952;-74
2023/09/26 02:23:05;;;;;;;;;31.20;28.60;;;;;17.82;72.36;99889.34;4919081;28;8848;-74
2023/09/26 02:25:34;;;;;;;;;35.20;27.60;;;;;17.66;71.92;99885.66;4970379;28;8875;-75
2023/09/26 02:28:03;;;;;;;;;38.80;32.80;;;;;17.71;72.03;99888.97;4968586;28;8883;-74
2023/09/26 02:30:32;;;;;;;;;38.40;32.80;;;;;17.75;72.19;99890.56;4970337;28;8843;-73
2023/09/26 02:33:02;;;;;;;;;33.00;30.00;;;;;17.93;72.10;99884.41;4969864;28;8859;-74
2023/09/26 02:35:31;;;;;;;;;38.80;31.60;;;;;18.05;71.53;99883.00;4951581;28;8894;-73
2023/09/26 02:38:00;;;;;;;;;34.80;31.80;;;;;18.00;70.19;99889.44;4935376;28;8867;-74
2023/09/26 02:40:29;;;;;;;;;39.60;32.60;;;;;17.75;70.74;99891.41;4968741;28;8957;-73
2023/09/26 02:42:57;;;;;;;;;41.40;32.00;;;;;16.97;73.51;99886.84;4951587;28;9688;-73
2023/09/26 02:45:26;;;;;;;;;39.60;33.00;;;;;16.55;75.39;99887.66;4969944;28;8866;-74
2023/09/26 02:47:55;;;;;;;;;35.40;32.60;;;;;16.57;75.77;99891.16;4968461;28;8871;-74
2023/09/26 02:50:26;;;;;;;;;36.40;30.60;;;;;16.81;74.43;99891.91;4970042;28;8941;-75
2023/09/26 02:52:54;;;;;;;;;33.00;31.60;;;;;16.94;73.85;99897.59;4935658;28;8875;-75
2023/09/26 02:55:23;;;;;;;;;35.20;30.40;;;;;17.17;73.72;99888.63;4968636;28;8859;-74
2023/09/26 02:57:52;;;;;;;;;42.80;34.00;;;;;17.41;72.66;99889.41;4969322;28;8875;-74
2023/09/26 03:00:21;;;;;;;;;36.00;32.40;;;;;16.99;73.22;99888.50;4970501;28;8875;-74
2023/09/26 03:02:50;;;;;;;;;38.40;33.20;;;;;16.92;73.75;99883.50;4952302;28;8879;-73
2023/09/26 03:05:19;;;;;;;;;39.40;33.60;;;;;17.14;73.18;99879.00;4970029;28;8921;-73
2023/09/26 03:07:52;;;;;;;;;36.20;32.40;;;;;17.41;72.39;99878.78;4968183;28;8997;-73
2023/09/26 03:10:21;;;;;;;;;32.80;29.60;;;;;17.24;72.13;99884.78;4968431;28;8867;-74
2023/09/26 03:12:50;;;;;;;;;31.80;28.80;;;;;17.10;72.56;99885.41;4967698;28;8977;-73
2023/09/26 03:15:19;;;;;;;;;29.60;28.80;;;;;17.17;72.14;99885.97;4982652;28;9614;-75
2023/09/26 03:17:48;;;;;;;;;34.60;31.00;;;;;17.07;72.58;99889.97;4985903;28;8865;-74
2023/09/26 03:20:17;;;;;;;;;34.00;29.00;;;;;16.86;73.94;99895.25;4970015;28;8868;-75
2023/09/26 03:22:46;;;;;;;;;32.80;27.40;;;;;17.14;72.86;99891.44;4970120;28;8891;-74
2023/09/26 03:25:16;;;;;;;;;30.20;28.80;;;;;17.30;72.57;99892.53;4943378;28;8871;-74
2023/09/26 03:27:47;;;;;;;;;37.20;32.80;;;;;17.36;72.53;99896.69;4950557;28;8875;-75
2023/09/26 03:30:17;;;;;;;;;32.40;30.80;;;;;17.04;72.91;99893.63;4964045;28;8852;-75
2023/09/26 03:32:46;;;;;;;;;28.80;26.40;;;;;17.20;72.52;99897.34;4953627;28;8868;-75
2023/09/26 03:35:15;;;;;;;;;38.40;31.20;;;;;16.86;73.59;99889.09;4985711;28;8868;-74
2023/09/26 03:37:43;;;;;;;;;37.80;33.20;;;;;16.85;74.10;99885.53;4985877;28;8919;-73
2023/09/26 03:40:12;;;;;;;;;33.60;30.60;;;;;17.02;73.60;99890.16;4958325;28;8840;-73
2023/09/26 03:42:43;;;;;;;;;36.00;32.40;;;;;16.90;73.51;99893.34;4966615;28;8867;-74
2023/09/26 03:45:12;;;;;;;;;40.00;33.80;;;;;16.65;74.27;99894.34;4966756;28;8847;-73
2023/09/26 03:47:40;;;;;;;;;40.20;34.20;;;;;16.83;73.79;99895.38;4936368;28;8861;-74
2023/09/26 03:50:10;;;;;;;;;40.80;33.40;;;;;16.84;73.56;99886.50;4997944;28;8857;-74
2023/09/26 03:52:39;;;;;;;;;42.00;34.60;;;;;16.88;73.69;99888.06;4980805;28;8880;-75
2023/09/26 03:55:08;;;;;;;;;72.50;58.25;;;;;17.11;72.96;99892.41;4935623;28;8875;-74
2023/09/26 03:57:37;;;;;;;;;48.40;39.80;;;;;16.84;73.44;99891.78;4969146;28;8882;-74
2023/09/26 04:00:15;;;;;;;;;44.60;38.20;;;;;17.05;72.57;99892.69;4968743;28;8907;-74
2023/09/26 04:02:45;;;;;;;;;46.40;39.00;;;;;17.15;71.50;99896.66;4951033;28;9033;-75
2023/09/26 04:05:14;;;;;;;;;38.20;32.60;;;;;16.95;72.23;99896.66;4968862;28;8905;-73
2023/09/26 04:07:43;;;;;;;;;49.00;37.60;;;;;17.18;71.57;99893.88;4968940;28;8859;-75
2023/09/26 04:10:12;;;;;;;;;46.20;35.60;;;;;17.36;71.07;99894.94;4968732;28;8986;-74
2023/09/26 04:12:41;;;;;;;;;47.40;39.20;;;;;17.54;70.73;99895.03;4968590;28;8933;-73
2023/09/26 04:15:11;;;;;;;;;46.20;38.40;;;;;17.45;70.23;99891.00;4968810;28;8855;-74
2023/09/26 04:17:41;;;;;;;;;53.50;45.00;;;;;17.50;69.79;99894.31;4918600;28;8860;-73
2023/09/26 04:20:19;;;;;;;;;56.50;44.00;;;;;17.61;69.43;99895.63;4968493;28;8871;-74
2023/09/26 04:23:05;;;;;;;;;52.60;40.00;;;;;17.55;69.48;99896.75;4947851;28;8882;-73
2023/09/26 04:25:35;;;;;;;;;48.20;39.80;;;;;17.59;69.59;99893.06;4950914;28;8960;-73
2023/09/26 04:28:04;;;;;;;;;49.00;36.20;;;;;17.48;69.72;99904.16;4957699;28;8859;-74
2023/09/26 04:30:39;;;;;;;;;44.60;38.00;;;;;17.54;69.68;99903.03;4979626;28;8882;-74
2023/09/26 04:33:09;;;;;;;;;54.40;42.00;;;;;17.03;71.30;99899.00;4954569;28;8921;-73
2023/09/26 04:35:38;;;;;;;;;49.40;40.40;;;;;17.04;71.62;99909.56;4971497;28;8863;-75
2023/09/26 04:38:07;;;;;;;;;49.75;42.50;;;;;16.83;72.62;99900.69;4971600;28;9708;-75
2023/09/26 04:40:36;;;;;;;;;52.80;43.00;;;;;16.53;74.24;99906.31;4955500;28;8898;-74
2023/09/26 04:43:05;;;;;;;;;53.20;42.00;;;;;16.35;75.10;99905.22;4973215;28;8887;-75
2023/09/26 04:45:35;;;;;;;;;61.25;48.25;;;;;16.42;75.08;99914.66;4971694;28;8848;-75
2023/09/26 04:48:06;;;;;;;;;52.00;43.75;;;;;16.49;74.77;99909.16;4970193;28;8859;-75
2023/09/26 04:50:35;;;;;;;;;82.33;75.33;;;;;16.85;73.73;99916.53;4971763;28;8875;-75
2023/09/26 04:53:04;;;;;;;;;59.00;47.25;;;;;17.09;72.76;99910.22;4967900;28;9128;-74
2023/09/26 04:55:33;;;;;;;;;67.50;53.00;;;;;17.36;72.24;99915.31;4960171;28;8945;-74
2023/09/26 04:58:02;;;;;;;;;56.50;44.25;;;;;17.09;71.84;99914.66;4974954;28;8917;-75
2023/09/26 05:00:32;;;;;;;;;53.00;43.75;;;;;17.31;71.17;99914.66;4977896;28;8983;-74
2023/09/26 05:03:01;;;;;;;;;68.00;52.50;;;;;17.53;70.97;99914.56;4972275;28;8925;-74
2023/09/26 05:05:31;;;;;;;;;61.00;48.25;;;;;17.69;70.57;99920.94;4971420;28;8867;-74
2023/09/26 05:08:00;;;;;;;;;58.25;48.50;;;;;17.80;69.87;99917.81;4971032;28;8895;-77
2023/09/26 05:10:29;;;;;;;;;55.50;44.50;;;;;17.94;69.71;99917.19;4968775;28;8859;-76
2023/09/26 05:12:58;;;;;;;;;56.00;46.25;;;;;17.99;68.93;99915.19;4969970;28;9597;-75
2023/09/26 05:15:33;;;;;;;;;52.50;42.75;;;;;18.12;69.23;99923.50;4974057;28;8863;-77
2023/09/26 05:18:03;;;;;;;;;52.50;43.25;;;;;17.72;69.08;99917.28;4971531;28;8891;-76
2023/09/26 05:20:34;;;;;;;;;57.00;45.75;;;;;16.98;72.18;99920.41;4953265;28;8868;-74
2023/09/26 05:23:03;;;;;;;;;56.00;44.75;;;;;16.47;73.65;99925.13;4964899;28;8883;-77
2023/09/26 05:25:35;;;;;;;;;50.00;39.75;;;;;16.32;74.44;99921.28;4936590;28;8847;-76
2023/09/26 05:28:05;;;;;;;;;55.25;45.50;;;;;16.69;73.15;99921.63;4969737;28;8909;-74
2023/09/26 05:30:36;;;;;;;;;55.75;43.75;;;;;17.11;72.31;99915.47;4969243;28;8894;-77
2023/09/26 05:33:05;;;;;;;;;53.50;43.50;;;;;17.36;71.98;99912.66;4970794;28;8934;-78
2023/09/26 05:35:36;;;;;;;;;56.50;45.00;;;;;17.23;71.04;99920.28;4969091;28;8867;-74
2023/09/26 05:38:05;;;;;;;;;58.25;46.50;;;;;17.14;71.30;99920.66;4971288;28;8868;-76
2023/09/26 05:40:34;;;;;;;;;58.00;45.00;;;;;17.27;70.58;99913.94;4971029;28;8879;-75
2023/09/26 05:43:03;;;;;;;;;64.75;49.50;;;;;17.25;70.92;99917.53;4975817;28;9045;-78
2023/09/26 05:45:32;;;;;;;;;57.75;45.25;;;;;16.96;72.31;99925.78;4979967;28;8889;-71
2023/09/26 05:48:01;;;;;;;;;60.75;47.50;;;;;16.99;72.29;99920.38;4970642;28;8879;-71
2023/09/26 05:50:30;;;;;;;;;52.75;43.75;;;;;16.83;72.45;99916.59;4970644;28;8883;-71
2023/09/26 05:53:01;;;;;;;;;46.00;40.00;;;;;16.76;72.57;99926.63;4969708;28;8973;-71
2023/09/26 05:55:30;;;;;;;;;49.20;37.20;;;;;16.85;72.56;99919.19;4970246;28;8875;-70
2023/09/26 05:57:59;;;;;;;;;52.25;43.00;;;;;17.16;72.17;99921.47;4967221;28;8852;-72
2023/09/26 06:00:28;;;;;;;;;52.80;41.60;;;;;17.45;71.34;99920.22;4951466;28;8855;-72
2023/09/26 06:02:56;;;;;;;;;53.25;44.00;;;;;17.72;70.53;99911.94;4966548;28;8989;-72
2023/09/26 06:05:26;;;;;;;;;53.75;43.00;;;;;17.95;69.27;99922.44;4967373;28;8871;-70
2023/09/26 06:07:54;;;;;;;;;50.80;42.80;;;;;18.15;68.03;99923.34;4967228;28;8993;-71
2023/09/26 06:10:25;;;;;;;;;6.60;0.00;;;;;18.37;67.37;99925.84;4967701;28;8855;-71
2023/09/26 06:12:54;;;;;;;;;52.50;43.75;;;;;18.18;67.14;99927.66;4951370;28;8876;-71
2023/09/26 06:15:23;;;;;;;;;50.00;40.25;;;;;18.09;67.42;99927.13;4967998;28;8859;-72
2023/09/26 06:17:59;;;;;;;;;49.20;41.40;;;;;17.90;68.31;99926.22;4967116;28;8871;-80
2023/09/26 06:20:28;;;;;;;;;51.00;41.80;;;;;17.84;68.27;99922.06;4967355;28;8941;-76
2023/09/26 06:22:59;;;;;;;;;54.25;44.25;;;;;18.07;68.14;99922.84;4951535;28;8860;-77
2023/09/26 06:25:29;;;;;;;;;46.00;39.40;;;;;18.26;67.09;99922.84;4967650;28;8944;-76
2023/09/26 06:28:09;;;;;;;;;50.00;41.80;;;;;18.42;67.06;99925.63;4951004;28;8919;-77
2023/09/26 06:30:38;;;;;;;;;49.00;40.60;;;;;18.65;66.59;99935.19;4969844;28;8867;-76
2023/09/26 06:33:07;;;;;;;;;51.75;42.25;;;;;18.75;65.41;99934.66;4977248;28;8868;-77
2023/09/26 06:35:36;;;;;;;;;50.25;41.25;;;;;18.83;65.29;99931.66;4985096;28;8867;-77
2023/09/26 06:38:05;;;;;;;;;52.25;42.00;;;;;19.06;65.01;99933.16;4975097;28;8867;-75
2023/09/26 06:40:35;;;;;;;;;52.75;43.25;;;;;19.26;65.00;99928.66;4971899;28;8875;-78
2023/09/26 06:43:05;;;;;;;;;50.40;42.60;;;;;19.37;63.89;99923.63;4952416;28;8895;-76
2023/09/26 06:45:34;;;;;;;;;52.60;42.40;;;;;19.41;62.73;99927.84;4968783;28;8856;-77
2023/09/26 06:48:02;;;;;;;;;51.25;42.50;;;;;19.03;62.84;99933.34;4969565;28;8879;-75
2023/09/26 06:50:32;;;;;;;;;51.00;40.75;;;;;18.46;65.05;99924.53;4969539;28;8860;-76
2023/09/26 06:53:01;;;;;;;;;44.20;37.80;;;;;18.58;65.06;99933.75;4969849;28;8856;-77
2023/09/26 06:55:30;;;;;;;;;47.80;40.60;;;;;18.79;64.23;99931.88;4951552;28;8883;-75
2023/09/26 06:58:00;;;;;;;;;48.60;40.00;;;;;18.97;63.52;99933.66;4936104;28;8856;-74
2023/09/26 07:00:29;;;;;;;;;48.20;41.00;;;;;18.77;64.00;99945.25;4973183;28;8867;-78
2023/09/26 07:02:58;;;;;;;;;50.75;43.50;;;;;18.59;64.21;99948.78;4973140;28;9697;-75
2023/09/26 07:05:27;;;;;;;;;50.50;41.50;;;;;18.45;64.51;99947.63;4973596;28;8876;-75
2023/09/26 07:07:56;;;;;;;;;50.00;42.00;;;;;18.32;64.64;99952.66;4969263;28;8886;-73
2023/09/26 07:10:25;;;;;;;;;50.80;41.20;;;;;18.52;64.49;99958.88;4969736;28;9734;-74
2023/09/26 07:12:54;;;;;;;;;51.00;42.00;;;;;18.97;64.41;99951.41;4969362;28;8965;-78
2023/09/26 07:15:28;;;;;;;;;52.00;44.00;;;;;19.09;63.97;99954.34;4968180;28;8879;-74
2023/09/26 07:17:58;;;;;;;;;53.25;43.25;;;;;18.70;65.14;99955.31;4969963;28;8954;-77
2023/09/26 07:20:28;;;;;;;;;45.75;40.00;;;;;18.31;66.35;99958.09;4970390;28;8890;-73
2023/09/26 07:22:57;;;;;;;;;51.00;42.00;;;;;18.28;65.95;99958.22;4970150;28;9002;-74
2023/09/26 07:25:26;;;;;;;;;50.40;41.00;;;;;18.44;65.55;99951.25;4978359;28;8871;-73
2023/09/26 07:27:55;;;;;;;;;53.00;43.50;;;;;18.92;64.85;99944.50;4976364;28;9831;-76
2023/09/26 07:30:26;;;;;;;;;51.75;41.50;;;;;19.38;64.65;99951.13;4971338;28;8864;-74
2023/09/26 07:32:54;;;;;;;;;50.75;41.50;;;;;19.74;64.13;99950.19;4969929;28;8998;-74
2023/09/26 07:35:25;;;;;;;;;51.00;42.20;;;;;20.05;62.31;99947.63;4969881;28;8851;-74
2023/09/26 07:37:54;;;;;;;;;54.25;44.25;;;;;19.89;61.35;99946.72;4968004;28;8871;-75
2023/09/26 07:40:23;;;;;;;;;47.80;40.60;;;;;19.66;62.60;99958.59;4969551;28;8851;-75
2023/09/26 07:42:52;;;;;;;;;48.00;40.60;;;;;19.60;62.85;99945.59;4967735;28;8868;-75
2023/09/26 07:45:21;;;;;;;;;51.00;42.75;;;;;19.91;61.06;99952.81;4951751;28;8870;-75
2023/09/26 07:47:51;;;;;;;;;52.00;43.00;;;;;19.25;62.79;99953.56;4934755;28;8887;-74
2023/09/26 07:50:20;;;;;;;;;48.20;40.80;;;;;18.93;64.08;99950.69;4969262;28;8988;-77
2023/09/26 07:52:49;;;;;;;;;51.20;41.80;;;;;18.93;64.30;99953.34;4934403;28;8856;-74
2023/09/26 07:55:18;;;;;;;;;51.60;42.20;;;;;19.33;63.32;99948.72;4969297;28;8965;-79
2023/09/26 07:57:47;;;;;;;;;48.80;40.60;;;;;19.63;62.08;99943.63;4935217;28;8851;-74
2023/09/26 08:00:16;;;;;;;;;48.20;40.60;;;;;20.08;61.69;99938.56;4970685;28;8933;-76
2023/09/26 08:02:45;;;;;;;;;51.80;43.20;;;;;20.16;60.05;99941.72;4971657;28;8883;-77
2023/09/26 08:05:16;;;;;;;;;36.40;33.20;;;;;20.54;59.22;99951.22;4972869;28;8913;-76
2023/09/26 08:07:44;;;;;;;;;46.60;36.40;;;;;20.81;58.16;99959.50;4972654;28;8914;-75
2023/09/26 08:10:14;;;;;;;;;42.80;35.60;;;;;20.97;56.75;99948.81;4972885;28;8855;-79
2023/09/26 08:12:43;;;;;;;;;36.60;32.00;;;;;21.05;56.17;99954.59;4973138;28;8935;-74
2023/09/26 08:15:13;;;;;;;;;42.40;35.40;;;;;20.72;56.83;99952.84;4974279;28;8855;-75
2023/09/26 08:17:42;;;;;;;;;41.20;36.40;;;;;20.68;57.35;99952.16;4917425;28;8943;-74
2023/09/26 08:20:12;;;;;;;;;36.60;32.20;;;;;20.28;57.35;99941.06;4984744;28;8894;-74
2023/09/26 08:22:44;;;;;;;;;42.40;36.40;;;;;20.10;57.30;99953.59;4972554;28;8911;-78
2023/09/26 08:25:13;;;;;;;;;37.00;31.80;;;;;20.61;55.91;99947.25;4972989;28;8961;-75
2023/09/26 08:27:42;;;;;;;;;33.60;30.20;;;;;20.85;56.61;99937.00;4972647;28;8874;-76
2023/09/26 08:30:12;;;;;;;;;43.20;36.20;;;;;21.18;54.70;99944.00;4972631;28;8929;-75
2023/09/26 08:32:41;;;;;;;;;37.80;34.00;;;;;20.75;55.62;99943.81;4972319;28;9032;-78
2023/09/26 08:35:11;;;;;;;;;42.80;36.20;;;;;20.65;55.53;99939.00;4954348;28;8964;-75
2023/09/26 08:37:41;;;;;;;;;43.00;35.20;;;;;21.10;54.62;99941.78;4971303;28;8863;-76
2023/09/26 08:40:12;;;;;;;;;35.80;32.20;;;;;21.49;53.26;99934.19;4972575;28;8871;-74
2023/09/26 08:42:45;;;;;;;;;33.60;30.60;;;;;21.79;52.89;99934.16;4955266;28;8981;-78
2023/09/26 08:45:15;;;;;;;;;35.60;33.40;;;;;22.10;51.46;99941.13;4938293;28;8860;-75
2023/09/26 08:47:45;;;;;;;;;33.80;31.60;;;;;22.33;51.66;99936.16;4972467;28;8903;-78
2023/09/26 08:50:14;;;;;;;;;33.80;31.20;;;;;22.52;50.06;99930.47;4972371;28;8851;-75
2023/09/26 08:52:43;;;;;;;;;34.00;31.80;;;;;22.79;50.44;99934.03;4972127;28;8898;-77
2023/09/26 08:55:13;;;;;;;;;34.40;30.80;;;;;22.85;50.13;99934.59;4953821;28;8867;-77
2023/09/26 08:57:43;;;;;;;;;29.40;27.80;;;;;22.93;49.06;99932.28;4972201;28;8954;-76
2023/09/26 09:00:14;;;;;;;;;31.80;30.60;;;;;23.06;49.79;99930.50;4970805;28;8938;-76
2023/09/26 09:02:43;;;;;;;;;33.00;30.80;;;;;23.16;49.54;99930.72;4955310;28;8880;-77
2023/09/26 09:05:13;;;;;;;;;28.80;28.40;;;;;23.18;48.79;99936.84;4973234;28;9707;-74
2023/09/26 09:07:42;;;;;;;;;31.40;28.00;;;;;23.27;48.85;99938.06;4976736;28;8882;-74
2023/09/26 09:10:13;;;;;;;;;33.60;31.00;;;;;23.41;47.24;99934.44;4974660;28;9641;-75
2023/09/26 09:12:44;;;;;;;;;30.80;30.00;;;;;23.51;47.56;99933.69;4973519;28;8899;-78
2023/09/26 09:15:28;;;;;;;;;31.00;29.60;;;;;23.72;47.15;99933.19;4971764;28;8906;-74
2023/09/26 09:17:57;;;;;;;;;30.60;28.00;;;;;23.70;46.27;99932.44;4971628;28;8867;-74
2023/09/26 09:20:31;;;;;;;;;34.20;29.80;;;;;23.53;46.87;99929.13;4971508;28;8945;-74
2023/09/26 09:23:02;;;;;;;;;29.20;27.00;;;;;23.72;46.79;99930.53;4971843;28;8879;-75
2023/09/26 09:25:35;;;;;;;;;33.40;29.80;;;;;23.59;46.71;99922.47;4970877;28;9658;-76
2023/09/26 09:28:06;;;;;;;;;32.00;30.60;;;;;23.12;46.41;99915.81;4971472;28;8934;-76
2023/09/26 09:30:39;;;;;;;;;28.40;27.00;;;;;23.36;47.30;99918.66;4969996;28;8890;-78
2023/09/26 09:33:09;;;;;;;;;33.20;29.60;;;;;23.53;46.85;99917.53;4971260;28;8986;-76
2023/09/26 09:35:39;;;;;;;;;30.60;29.40;;;;;23.46;46.92;99922.41;4971583;28;8856;-77
2023/09/26 09:38:12;;;;;;;;;32.20;29.40;;;;;23.21;46.60;99915.19;4971232;28;8856;-76
2023/09/26 09:40:44;;;;;;;;;38.00;32.00;;;;;23.34;46.30;99920.59;4971158;28;8847;-74
2023/09/26 09:43:13;;;;;;;;;32.40;30.00;;;;;23.22;46.70;99916.91;4969954;28;8859;-76
2023/09/26 09:45:43;;;;;;;;;29.40;27.00;;;;;23.36;46.52;99911.47;4971069;28;8879;-74
2023/09/26 09:48:14;;;;;;;;;27.60;25.20;;;;;23.26;45.81;99904.13;4952566;28;8863;-75
2023/09/26 09:50:47;;;;;;;;;25.00;24.40;;;;;23.36;44.47;99905.25;4971262;28;8922;-76
2023/09/26 09:53:22;;;;;;;;;26.20;26.00;;;;;23.54;45.01;99908.50;4970180;28;8883;-75
2023/09/26 09:55:53;;;;;;;;;19.20;18.20;;;;;23.61;45.09;99914.31;4972266;28;9033;-78
2023/09/26 09:58:28;;;;;;;;;22.40;21.40;;;;;23.66;42.15;99896.91;4972379;28;8887;-74
2023/09/26 10:00:57;;;;;;;;;19.00;17.80;;;;;23.30;39.26;99898.47;4977654;28;8844;-77
2023/09/26 10:03:27;;;;;;;;;15.80;15.80;;;;;23.55;38.50;99896.81;4977542;28;8879;-75
2023/09/26 10:05:59;;;;;;;;;17.40;16.80;;;;;23.66;39.73;99891.56;4973096;28;9605;-75
2023/09/26 10:08:28;;;;;;;;;20.20;18.60;;;;;23.92;40.25;99886.13;4972691;28;8860;-76
2023/09/26 10:11:01;;;;;;;;;16.40;15.40;;;;;24.06;38.26;99882.47;4971106;28;8856;-76
2023/09/26 10:13:34;;;;;;;;;16.80;16.00;;;;;24.21;38.85;99884.09;4971390;28;8879;-78
2023/09/26 10:16:07;;;;;;;;;15.60;13.40;;;;;24.35;37.19;99877.69;4969627;28;8981;-76
2023/09/26 10:18:40;;;;;;;;;19.00;17.00;;;;;24.58;37.23;99867.06;4971369;28;9010;-74
2023/09/26 10:21:26;;;;;;;;;17.60;16.40;;;;;24.78;35.20;99871.00;4970832;28;8886;-77
2023/09/26 10:24:29;;;;;;;;;13.60;12.80;;;;;24.83;34.79;99864.28;4971191;28;8897;-77
2023/09/26 10:27:07;;;;;;;;;16.40;16.00;;;;;24.96;36.10;99876.78;4939513;29;8871;-74
2023/09/26 10:29:56;;;;;;;;;16.00;14.00;;;;;24.88;35.17;99866.63;4891754;29;9584;-75
2023/09/26 10:32:36;;;;;;;;;18.80;17.80;;;;;25.15;36.65;99870.84;4929879;29;9057;-75
2023/09/26 10:35:30;;;;;;;;;17.00;17.00;;;;;25.34;35.94;99873.00;4929535;29;8869;-76
2023/09/26 10:38:11;;;;;;;;;18.60;16.20;;;;;25.38;35.83;99874.47;4913499;29;8971;-75
2023/09/26 10:40:40;;;;;;;;;19.00;16.80;;;;;25.25;36.60;99859.25;4913507;29;8876;-75
2023/09/26 10:43:11;;;;;;;;;18.20;14.60;;;;;25.37;33.88;99867.41;4929723;29;8861;-77
2023/09/26 10:45:45;;;;;;;;;18.20;17.60;;;;;25.47;34.93;99863.00;4913310;29;8869;-78
2023/09/26 10:48:19;;;;;;;;;19.40;16.20;;;;;25.38;35.41;99864.59;4913865;29;8872;-75
2023/09/26 10:50:49;;;;;;;;;19.20;17.80;;;;;25.43;34.08;99865.06;4913905;29;8884;-75
2023/09/26 10:53:19;;;;;;;;;19.60;19.60;;;;;25.48;34.61;99867.41;4917255;29;8861;-78
2023/09/26 10:55:48;;;;;;;;;17.20;17.20;;;;;25.48;34.95;99864.72;4935157;29;8884;-74
2023/09/26 10:58:21;;;;;;;;;16.20;15.40;;;;;25.39;32.28;99857.38;4930369;29;8861;-75
2023/09/26 11:00:51;;;;;;;;;16.60;16.60;;;;;25.36;32.72;99862.97;4929638;29;8872;-79
2023/09/26 11:03:21;;;;;;;;;13.80;12.80;;;;;25.39;31.96;99844.75;4932379;28;8877;-77
2023/09/26 11:05:50;;;;;;;;;15.00;14.80;;;;;25.28;31.75;99850.97;4968905;28;8867;-74
2023/09/26 11:08:20;;;;;;;;;16.00;14.60;;;;;25.43;31.77;99854.28;4969741;28;8968;-74
2023/09/26 11:10:50;;;;;;;;;16.80;14.80;;;;;25.46;31.37;99842.44;4969978;28;9006;-78
2023/09/26 11:13:19;;;;;;;;;16.40;16.40;;;;;25.52;32.02;99847.34;4970088;28;8876;-76
2023/09/26 11:15:53;;;;;;;;;15.80;15.80;;;;;25.84;32.09;99843.91;4969997;28;8859;-80
2023/09/26 11:18:22;;;;;;;;;18.00;14.20;;;;;25.68;31.42;99838.88;4970455;28;8980;-79
2023/09/26 11:20:52;;;;;;;;;15.20;14.60;;;;;25.79;30.60;99838.88;4937099;28;9595;-81
2023/09/26 11:23:41;;;;;;;;;15.00;14.40;;;;;25.81;30.79;99842.31;4970034;28;8950;-80
2023/09/26 11:26:09;;;;;;;;;15.80;15.80;;;;;26.04;31.07;99828.84;4970291;28;8860;-76
2023/09/26 11:28:40;;;;;;;;;13.40;12.00;;;;;26.32;30.88;99829.28;4970429;28;8844;-76
2023/09/26 11:31:10;;;;;;;;;17.40;14.60;;;;;26.18;29.77;99831.28;4968787;28;8879;-75
2023/09/26 11:33:39;;;;;;;;;14.40;14.40;;;;;26.34;30.23;99825.47;4970161;28;8867;-76
2023/09/26 11:36:10;;;;;;;;;12.40;12.40;;;;;26.59;30.85;99823.44;4972331;28;8909;-76
2023/09/26 11:38:48;;;;;;;;;14.60;14.60;;;;;26.89;30.23;99820.03;4974034;28;8871;-76